Terminal Aerodrome Forecast
Issued by NWS Cleveland, OH

Home | Current Version | Previous Version | Text Only | Print | Product List | Glossary Off
Versions: 1 2 3 4 5 6 7 8 9 10 11 12 13 14 15 16 17 18 19 20 21 22

000
FTUS41 KCLE 271133
TAFCAK
TAF
KCAK 271133Z 2712/2812 08014G20KT 3SM -RA BR OVC006
     FM272200 18008KT 4SM -SHRA BR VCTS SCT006 OVC012CB
     FM280300 18008KT 3SM -SHRA BR OVC006=

USA.gov is the U.S. government's official web portal to all federal, state and local government web resources and services.